sensor_id;sensor_type;location;lat;lon;timestamp;temperature;humidity
31687;DHT22;18285;51.330;4.946;2023-06-26T00:01:24;24.00;48.80
31687;DHT22;18285;51.330;4.946;2023-06-26T00:25:34;23.90;48.80
31687;DHT22;18285;51.330;4.946;2023-06-26T00:49:45;24.00;48.90
31687;DHT22;18285;51.330;4.946;2023-06-26T01:13:56;24.00;49.00
31687;DHT22;18285;51.330;4.946;2023-06-26T01:38:19;23.90;48.80
31687;DHT22;18285;51.330;4.946;2023-06-26T02:02:30;24.00;48.90
31687;DHT22;18285;51.330;4.946;2023-06-26T02:26:41;23.90;48.90
31687;DHT22;18285;51.330;4.946;2023-06-26T02:50:52;23.90;48.60
31687;DHT22;18285;51.330;4.946;2023-06-26T03:15:02;23.90;48.60
31687;DHT22;18285;51.330;4.946;2023-06-26T03:39:13;23.90;48.50
31687;DHT22;18285;51.330;4.946;2023-06-26T04:03:24;23.80;48.80
31687;DHT22;18285;51.330;4.946;2023-06-26T04:27:35;23.80;49.00
31687;DHT22;18285;51.330;4.946;2023-06-26T04:51:45;23.90;48.80
31687;DHT22;18285;51.330;4.946;2023-06-26T05:15:57;23.80;48.60
31687;DHT22;18285;51.330;4.946;2023-06-26T05:40:08;23.80;49.40
31687;DHT22;18285;51.330;4.946;2023-06-26T06:04:19;23.80;50.20
31687;DHT22;18285;51.330;4.946;2023-06-26T06:28:30;23.90;50.70
31687;DHT22;18285;51.330;4.946;2023-06-26T06:52:40;23.90;50.90
31687;DHT22;18285;51.330;4.946;2023-06-26T07:16:51;23.90;50.50
31687;DHT22;18285;51.330;4.946;2023-06-26T07:41:02;24.00;50.40
31687;DHT22;18285;51.330;4.946;2023-06-26T08:05:13;23.80;50.40
31687;DHT22;18285;51.330;4.946;2023-06-26T08:29:23;23.90;50.50
31687;DHT22;18285;51.330;4.946;2023-06-26T08:53:59;23.90;50.50
31687;DHT22;18285;51.330;4.946;2023-06-26T09:18:10;24.00;50.60
31687;DHT22;18285;51.330;4.946;2023-06-26T09:42:22;24.00;50.40
31687;DHT22;18285;51.330;4.946;2023-06-26T10:06:36;24.00;50.20
31687;DHT22;18285;51.330;4.946;2023-06-26T10:30:48;24.00;50.10
31687;DHT22;18285;51.330;4.946;2023-06-26T10:55:02;23.90;50.20
31687;DHT22;18285;51.330;4.946;2023-06-26T11:19:13;24.00;50.10
31687;DHT22;18285;51.330;4.946;2023-06-26T11:43:25;24.00;50.30
31687;DHT22;18285;51.330;4.946;2023-06-26T12:07:36;23.90;49.10
31687;DHT22;18285;51.330;4.946;2023-06-26T12:31:52;23.90;50.20
31687;DHT22;18285;51.330;4.946;2023-06-26T12:56:03;24.00;50.10
31687;DHT22;18285;51.330;4.946;2023-06-26T13:20:14;24.00;50.20
31687;DHT22;18285;51.330;4.946;2023-06-26T13:44:24;24.00;50.20
31687;DHT22;18285;51.330;4.946;2023-06-26T14:08:35;24.00;50.30
31687;DHT22;18285;51.330;4.946;2023-06-26T14:32:46;24.00;50.10
31687;DHT22;18285;51.330;4.946;2023-06-26T14:56:56;24.00;50.20
31687;DHT22;18285;51.330;4.946;2023-06-26T15:21:07;24.00;50.10
31687;DHT22;18285;51.330;4.946;2023-06-26T15:45:18;24.00;50.10
31687;DHT22;18285;51.330;4.946;2023-06-26T16:09:29;24.00;50.10
31687;DHT22;18285;51.330;4.946;2023-06-26T16:33:39;24.10;50.10
31687;DHT22;18285;51.330;4.946;2023-06-26T16:57:50;24.00;49.70
31687;DHT22;18285;51.330;4.946;2023-06-26T17:22:04;24.20;49.70
31687;DHT22;18285;51.330;4.946;2023-06-26T17:46:15;24.10;49.50
31687;DHT22;18285;51.330;4.946;2023-06-26T18:10:25;24.00;49.80
31687;DHT22;18285;51.330;4.946;2023-06-26T18:34:36;24.00;49.80
31687;DHT22;18285;51.330;4.946;2023-06-26T18:58:47;24.00;49.60
31687;DHT22;18285;51.330;4.946;2023-06-26T19:22:57;24.00;49.70
31687;DHT22;18285;51.330;4.946;2023-06-26T19:47:08;24.00;49.50
31687;DHT22;18285;51.330;4.946;2023-06-26T20:11:18;24.10;49.40
31687;DHT22;18285;51.330;4.946;2023-06-26T20:35:29;24.10;49.40
31687;DHT22;18285;51.330;4.946;2023-06-26T20:59:40;24.20;49.20
31687;DHT22;18285;51.330;4.946;2023-06-26T21:23:51;24.10;49.60
31687;DHT22;18285;51.330;4.946;2023-06-26T21:48:02;24.10;49.50
31687;DHT22;18285;51.330;4.946;2023-06-26T22:12:13;24.10;49.30
31687;DHT22;18285;51.330;4.946;2023-06-26T22:36:24;24.10;49.20
31687;DHT22;18285;51.330;4.946;2023-06-26T23:00:37;24.10;49.30
31687;DHT22;18285;51.330;4.946;2023-06-26T23:24:48;24.10;49.20
31687;DHT22;18285;51.330;4.946;2023-06-26T23:49:00;24.20;49.10
